Nearby METAR Reports

 

KMQS - Coatesville, Pennsylvania, USA
Distance from station: NW 12mi, 19km
Updated: Mon, 11-Nov-2019 5:35pm EST
Clear
Clear
 Wind from SE
Wind: SE 7 mph , 11 km/h
Temperature: 57°F , 14°C
Dew Point: 43°F , 6°C
Humidity: 59%
Barometer: 29.91 inHg , 1012.9 hPa
Clouds: Clear
Visibility: 10 miles , 16 km
2019/11/11 22:35 KMQS 112235Z AUTO 14006KT 10SM CLR 14/06 A2991 RMK AO2
KOQN - West Chester, Pennsylvania, USA
Distance from station: NE 13mi, 21km
Updated: Mon, 11-Nov-2019 5:35pm EST

 Wind from SE
Wind: SE 3 mph , 6 km/h
Temperature: 57°F , 14°C
Dew Point: 41°F , 5°C
Humidity: 55%
Barometer: 29.91 inHg , 1012.9 hPa
Visibility: 10 miles , 16 km
2019/11/11 22:35 KOQN 112235Z AUTO 14003KT 10SM 14/05 A2991 RMK AO2
 
KILG - Wilmington, Delaware, USA
Distance from station: SSE 14mi, 23km
Updated: Mon, 11-Nov-2019 5:51pm EST
Clear
Clear
 Wind from SSE
Wind: SSE 9 mph , 15 km/h
Temperature: 55°F , 13°C
Dew Point: 45°F , 7°C
Humidity: 67%
Barometer: 29.91 inHg , 1012.9 hPa
Clouds: Clear
Visibility: 10 miles , 16 km
2019/11/11 22:51 KILG 112251Z 16008KT 10SM CLR 13/07 A2991 RMK AO2 SLP128 T01280067 $
KPHL - Philadelphia, Pennsylvania, USA
Distance from station: E 27mi, 43km
Updated: Mon, 11-Nov-2019 4:54pm EST
Mostly cloudy
Mostly cloudy
 Wind from SSE
Wind: SSE 3 mph , 6 km/h
Temperature: 61°F , 16°C
Dew Point: 39°F , 4°C
Humidity: 45%
Barometer: 29.94 inHg , 1013.9 hPa
Clouds: Mostly cloudy
Visibility: 10 miles , 16 km
Cloud details: Partly cloudy 21000 ft
Mostly cloudy 26000 ft
2019/11/11 21:54 KPHL 112154Z 15003KT 10SM SCT210 BKN260 16/04 A2994 RMK AO2 SLP138 T01610044 $
 
KPTW - Pottstown, Pennsylvania, USA
Distance from station: NNE 29mi, 47km
Updated: Mon, 11-Nov-2019 4:54pm EST
Clear
Clear
 Wind from calm
Wind: Calm
Temperature: 57°F , 14°C
Dew Point: 41°F , 5°C
Humidity: 55%
Barometer: 29.93 inHg , 1013.5 hPa
Clouds: Clear
Visibility: 8 miles , 13 km
2019/11/11 21:54 KPTW 112154Z AUTO 00000KT 8SM CLR 14/05 A2993 RMK AO2 SLP136 T01440050
KLOM - Philly Wings F, Pennsylvania, USA
Distance from station: NE 32mi, 52km
Updated: Mon, 11-Nov-2019 5:35pm EST
Clear
Clear
 Wind from ESE
Wind: ESE 3 mph , 6 km/h
Temperature: 55°F , 13°C
Dew Point: 41°F , 5°C
Humidity: 59%
Barometer: 29.91 inHg , 1012.9 hPa
Clouds: Clear
Visibility: 10 miles , 16 km
2019/11/11 22:35 KLOM 112235Z AUTO 12003KT 10SM CLR 13/05 A2991 RMK AO2 T01260052
 
KAPG - Aberdeen/Phillip, Maryland, USA
Distance from station: SW 34mi, 55km
Updated: Fri, 08-Nov-2019 2:51pm EST
NOT Current
Mostly cloudy
Mostly cloudy
 Wind from N
Wind: N 9 mph , 15 km/h
Temperature: 39°F , 4°C
Wind Chill: 33°F , 1°C
Dew Point: 18°F , -8°C
Humidity: 42%
Barometer: 30.24 inHg , 1024 hPa
Clouds: Mostly cloudy
Visibility: 10 miles , 16 km
Cloud details: Mostly cloudy 6000 ft
2019/11/08 19:51 KAPG 081951Z 36008KT 320V030 10SM BKN060 04/M08 A3024 RMK SLP244
KLNS - Lancaster, Pennsylvania, USA
Distance from station: WNW 35mi, 57km
Updated: Mon, 11-Nov-2019 4:53pm EST
Clear
Clear
 Wind from SSE
Wind: SSE 9 mph , 15 km/h
Temperature: 61°F , 16°C
Dew Point: 39°F , 4°C
Humidity: 45%
Barometer: 29.90 inHg , 1012.5 hPa
Clouds: Clear
Visibility: 10 miles , 16 km
2019/11/11 21:53 KLNS 112153Z 16008KT 10SM CLR 16/04 A2990 RMK AO2 SLP125 T01560044
 
KRDG - Reading, Pennsylvania, USA
Distance from station: NNW 38mi, 62km
Updated: Mon, 11-Nov-2019 4:54pm EST
Clear
Clear
 Wind from SSE
Wind: SSE 7 mph , 11 km/h
Temperature: 61°F , 16°C
Dew Point: 43°F , 6°C
Humidity: 52%
Barometer: 29.89 inHg , 1012.2 hPa
Clouds: Clear
Visibility: 10 miles , 16 km
2019/11/11 21:54 KRDG 112154Z 16006KT 10SM CLR 16/06 A2989 RMK AO2 SLP127 T01560061
KPNE - Philadelphia/Ne, Pennsylvania, USA
Distance from station: ENE 42mi, 67km
Updated: Mon, 11-Nov-2019 4:54pm EST
Clear
Clear
 Wind from ESE
Wind: ESE 3 mph , 6 km/h
Temperature: 61°F , 16°C
Dew Point: 41°F , 5°C
Humidity: 48%
Barometer: 29.95 inHg , 1014.2 hPa
Clouds: Clear
Visibility: 10 miles , 16 km
2019/11/11 21:54 KPNE 112154Z 12003KT 10SM CLR 16/05 A2995 RMK AO2 SLP142 T01610050
 
KCKZ - Perkasie, Pennsylvania, USA
Distance from station: NNE 45mi, 72km
Updated: Mon, 11-Nov-2019 5:35pm EST
Clear
Clear
 Wind from calm
Wind: Calm
Temperature: 55°F , 13°C
Dew Point: 41°F , 5°C
Humidity: 59%
Barometer: 29.91 inHg , 1012.9 hPa
Clouds: Clear
Visibility: 10 miles , 16 km
2019/11/11 22:35 KCKZ 112235Z AUTO 00000KT 10SM CLR 13/05 A2991 RMK AO2
KUKT - Quakertown Arp, Pennsylvania, USA
Distance from station: NNE 45mi, 73km
Updated: Mon, 11-Nov-2019 5:40pm EST
Clear
Clear
 Wind from SE
Wind: SE 5 mph , 7 km/h
Temperature: 57°F , 14°C
Dew Point: 41°F , 5°C
Humidity: 55%
Barometer: 29.90 inHg , 1012.5 hPa
Clouds: Clear
Visibility: 10 miles , 16 km
2019/11/11 22:40 KUKT 112240Z AUTO 13004KT 10SM CLR 14/05 A2990 RMK A01
 
KDYL - Doylestown, Pennsylvania, USA
Distance from station: NE 47mi, 76km
Updated: Mon, 11-Nov-2019 4:54pm EST
Clear
Clear
 Wind from SE
Wind: SE 5 mph , 7 km/h
Temperature: 57°F , 14°C
Dew Point: 39°F , 4°C
Humidity: 51%
Barometer: 29.93 inHg , 1013.5 hPa
Clouds: Clear
Visibility: 10 miles , 16 km
2019/11/11 21:54 KDYL 112154Z AUTO 13004KT 10SM CLR 14/04 A2993 RMK AO2 SLP138 T01390044
KMIV - Millville, New Jersey, USA
Distance from station: SE 48mi, 77km
Updated: Mon, 11-Nov-2019 4:54pm EST
Clear
Clear
 Wind from calm
Wind: Calm
Temperature: 55°F , 13°C
Dew Point: 45°F , 7°C
Humidity: 67%
Barometer: 29.96 inHg , 1014.6 hPa
Clouds: Clear
Visibility: 10 miles , 16 km
2019/11/11 21:54 KMIV 112154Z AUTO 00000KT 10SM CLR 13/07 A2996 RMK AO2 SLP142 T01330067
 
KVAY - Mount Holly, New Jersey, USA
Distance from station: E 48mi, 78km
Updated: Mon, 11-Nov-2019 4:54pm EST
Clear
Clear
 Wind from SSE
Wind: SSE 3 mph , 6 km/h
Temperature: 61°F , 16°C
Dew Point: 43°F , 6°C
Humidity: 52%
Barometer: 29.95 inHg , 1014.2 hPa
Clouds: Clear
Visibility: 10 miles , 16 km
2019/11/11 21:54 KVAY 112154Z AUTO 15003KT 10SM CLR 16/06 A2995 RMK AO2 SLP140 T01560056 $